sensor_id;sensor_type;location;lat;lon;timestamp;temperature;humidity
35680;DHT22;21803;53.586;10.040;2022-07-29T00:00:01;26.30;40.20
35680;DHT22;21803;53.586;10.040;2022-07-29T00:02:27;26.30;40.30
35680;DHT22;21803;53.586;10.040;2022-07-29T00:04:53;26.30;40.30
35680;DHT22;21803;53.586;10.040;2022-07-29T00:07:19;26.30;40.30
35680;DHT22;21803;53.586;10.040;2022-07-29T00:09:45;26.30;40.30
35680;DHT22;21803;53.586;10.040;2022-07-29T00:12:10;26.30;40.30
35680;DHT22;21803;53.586;10.040;2022-07-29T00:14:37;26.30;40.30
35680;DHT22;21803;53.586;10.040;2022-07-29T00:17:02;26.30;40.30
35680;DHT22;21803;53.586;10.040;2022-07-29T00:19:28;26.30;40.30
35680;DHT22;21803;53.586;10.040;2022-07-29T00:21:53;26.30;40.30
35680;DHT22;21803;53.586;10.040;2022-07-29T00:24:19;26.30;40.30
35680;DHT22;21803;53.586;10.040;2022-07-29T00:26:44;26.20;40.30
35680;DHT22;21803;53.586;10.040;2022-07-29T00:29:10;26.30;40.30
35680;DHT22;21803;53.586;10.040;2022-07-29T00:31:35;26.30;40.30
35680;DHT22;21803;53.586;10.040;2022-07-29T00:34:01;26.30;40.40
35680;DHT22;21803;53.586;10.040;2022-07-29T00:36:27;26.30;40.30
35680;DHT22;21803;53.586;10.040;2022-07-29T00:38:53;26.30;40.30
35680;DHT22;21803;53.586;10.040;2022-07-29T00:41:19;26.30;40.30
35680;DHT22;21803;53.586;10.040;2022-07-29T00:43:44;26.30;40.40
35680;DHT22;21803;53.586;10.040;2022-07-29T00:46:11;26.30;40.30
35680;DHT22;21803;53.586;10.040;2022-07-29T00:48:37;26.30;40.30
35680;DHT22;21803;53.586;10.040;2022-07-29T00:51:04;26.30;40.30
35680;DHT22;21803;53.586;10.040;2022-07-29T00:53:32;26.30;40.30
35680;DHT22;21803;53.586;10.040;2022-07-29T00:55:58;26.30;40.40
35680;DHT22;21803;53.586;10.040;2022-07-29T00:58:24;26.30;40.40
35680;DHT22;21803;53.586;10.040;2022-07-29T01:00:52;26.30;40.30
35680;DHT22;21803;53.586;10.040;2022-07-29T01:03:17;26.30;41.00
35680;DHT22;21803;53.586;10.040;2022-07-29T01:05:44;26.30;40.40
35680;DHT22;21803;53.586;10.040;2022-07-29T01:08:12;26.30;40.40
35680;DHT22;21803;53.586;10.040;2022-07-29T01:10:40;26.30;40.40
35680;DHT22;21803;53.586;10.040;2022-07-29T01:13:07;26.30;40.40
35680;DHT22;21803;53.586;10.040;2022-07-29T01:15:38;26.30;40.40
35680;DHT22;21803;53.586;10.040;2022-07-29T01:18:37;26.10;40.30
35680;DHT22;21803;53.586;10.040;2022-07-29T01:29:07;26.30;40.80
35680;DHT22;21803;53.586;10.040;2022-07-29T01:34:24;26.30;40.80
35680;DHT22;21803;53.586;10.040;2022-07-29T01:37:19;26.30;40.80
35680;DHT22;21803;53.586;10.040;2022-07-29T01:39:48;26.30;40.80
35680;DHT22;21803;53.586;10.040;2022-07-29T01:42:34;26.30;40.80
35680;DHT22;21803;53.586;10.040;2022-07-29T01:47:54;26.30;40.80
35680;DHT22;21803;53.586;10.040;2022-07-29T01:50:31;26.30;40.80
35680;DHT22;21803;53.586;10.040;2022-07-29T01:53:05;26.30;40.80
35680;DHT22;21803;53.586;10.040;2022-07-29T01:55:35;26.30;40.80
35680;DHT22;21803;53.586;10.040;2022-07-29T01:58:03;26.30;40.80
35680;DHT22;21803;53.586;10.040;2022-07-29T02:00:31;26.20;40.70
35680;DHT22;21803;53.586;10.040;2022-07-29T02:02:59;26.30;40.80
35680;DHT22;21803;53.586;10.040;2022-07-29T02:05:27;26.10;40.60
35680;DHT22;21803;53.586;10.040;2022-07-29T02:07:55;26.20;40.70
35680;DHT22;21803;53.586;10.040;2022-07-29T02:10:25;26.20;40.70
35680;DHT22;21803;53.586;10.040;2022-07-29T02:12:54;26.20;40.70
35680;DHT22;21803;53.586;10.040;2022-07-29T02:15:20;26.20;40.60
35680;DHT22;21803;53.586;10.040;2022-07-29T02:17:52;26.20;40.70
35680;DHT22;21803;53.586;10.040;2022-07-29T02:20:20;26.20;40.70
35680;DHT22;21803;53.586;10.040;2022-07-29T02:22:48;26.30;40.80
35680;DHT22;21803;53.586;10.040;2022-07-29T02:25:15;26.20;40.70
35680;DHT22;21803;53.586;10.040;2022-07-29T02:27:42;26.20;40.70
35680;DHT22;21803;53.586;10.040;2022-07-29T02:30:08;26.20;40.70
35680;DHT22;21803;53.586;10.040;2022-07-29T02:32:36;26.20;40.60
35680;DHT22;21803;53.586;10.040;2022-07-29T02:35:03;26.20;40.70
35680;DHT22;21803;53.586;10.040;2022-07-29T02:37:29;26.20;40.70
35680;DHT22;21803;53.586;10.040;2022-07-29T02:39:57;26.20;40.70
35680;DHT22;21803;53.586;10.040;2022-07-29T02:42:24;26.20;40.70
35680;DHT22;21803;53.586;10.040;2022-07-29T02:44:51;26.10;40.60
35680;DHT22;21803;53.586;10.040;2022-07-29T02:47:30;26.30;40.70
35680;DHT22;21803;53.586;10.040;2022-07-29T02:50:51;26.20;40.70
35680;DHT22;21803;53.586;10.040;2022-07-29T02:53:09;26.20;40.70
35680;DHT22;21803;53.586;10.040;2022-07-29T02:55:44;26.20;40.70
35680;DHT22;21803;53.586;10.040;2022-07-29T03:00:46;26.20;40.90
35680;DHT22;21803;53.586;10.040;2022-07-29T03:03:15;26.20;41.10
35680;DHT22;21803;53.586;10.040;2022-07-29T03:05:41;26.20;41.00
35680;DHT22;21803;53.586;10.040;2022-07-29T03:08:09;26.20;41.10
35680;DHT22;21803;53.586;10.040;2022-07-29T03:10:37;26.20;41.00
35680;DHT22;21803;53.586;10.040;2022-07-29T03:13:04;26.20;41.00
35680;DHT22;21803;53.586;10.040;2022-07-29T03:15:31;26.20;41.00
35680;DHT22;21803;53.586;10.040;2022-07-29T03:17:58;26.20;41.00
35680;DHT22;21803;53.586;10.040;2022-07-29T03:20:27;26.20;40.90
35680;DHT22;21803;53.586;10.040;2022-07-29T03:22:52;26.20;40.90
35680;DHT22;21803;53.586;10.040;2022-07-29T03:25:19;26.30;41.00
35680;DHT22;21803;53.586;10.040;2022-07-29T03:27:46;26.20;40.90
35680;DHT22;21803;53.586;10.040;2022-07-29T03:30:12;26.30;41.00
35680;DHT22;21803;53.586;10.040;2022-07-29T03:32:40;26.20;40.90
35680;DHT22;21803;53.586;10.040;2022-07-29T03:35:06;26.20;40.90
35680;DHT22;21803;53.586;10.040;2022-07-29T03:37:32;26.20;40.90
35680;DHT22;21803;53.586;10.040;2022-07-29T03:39:59;26.30;40.90
35680;DHT22;21803;53.586;10.040;2022-07-29T03:42:30;26.20;40.90
35680;DHT22;21803;53.586;10.040;2022-07-29T03:44:57;26.20;40.90
35680;DHT22;21803;53.586;10.040;2022-07-29T03:47:25;26.30;40.90
35680;DHT22;21803;53.586;10.040;2022-07-29T03:49:56;26.20;40.80
35680;DHT22;21803;53.586;10.040;2022-07-29T03:52:23;26.20;40.80
35680;DHT22;21803;53.586;10.040;2022-07-29T03:54:49;26.10;40.70
35680;DHT22;21803;53.586;10.040;2022-07-29T03:57:16;26.20;40.80
35680;DHT22;21803;53.586;10.040;2022-07-29T03:59:42;26.30;40.90
35680;DHT22;21803;53.586;10.040;2022-07-29T04:02:10;26.30;40.80
35680;DHT22;21803;53.586;10.040;2022-07-29T04:04:37;26.30;40.80
35680;DHT22;21803;53.586;10.040;2022-07-29T04:07:03;26.30;41.40
35680;DHT22;21803;53.586;10.040;2022-07-29T04:09:29;26.40;40.90
35680;DHT22;21803;53.586;10.040;2022-07-29T04:11:55;26.20;40.70
35680;DHT22;21803;53.586;10.040;2022-07-29T04:14:20;26.30;40.80
35680;DHT22;21803;53.586;10.040;2022-07-29T04:16:46;26.30;40.80
35680;DHT22;21803;53.586;10.040;2022-07-29T04:19:12;26.30;40.80
35680;DHT22;21803;53.586;10.040;2022-07-29T04:21:41;26.20;40.70
35680;DHT22;21803;53.586;10.040;2022-07-29T04:24:07;26.20;40.80
35680;DHT22;21803;53.586;10.040;2022-07-29T04:26:34;26.10;40.80
35680;DHT22;21803;53.586;10.040;2022-07-29T04:29:00;26.30;40.90
35680;DHT22;21803;53.586;10.040;2022-07-29T04:31:26;26.40;40.80
35680;DHT22;21803;53.586;10.040;2022-07-29T04:33:51;26.20;40.80
35680;DHT22;21803;53.586;10.040;2022-07-29T04:36:17;26.30;40.80
35680;DHT22;21803;53.586;10.040;2022-07-29T04:38:43;26.20;40.70
35680;DHT22;21803;53.586;10.040;2022-07-29T04:41:08;26.20;40.70
35680;DHT22;21803;53.586;10.040;2022-07-29T04:43:37;26.20;40.70
35680;DHT22;21803;53.586;10.040;2022-07-29T04:46:03;26.30;40.70
35680;DHT22;21803;53.586;10.040;2022-07-29T04:48:31;26.30;40.80
35680;DHT22;21803;53.586;10.040;2022-07-29T04:50:56;26.20;40.80
35680;DHT22;21803;53.586;10.040;2022-07-29T04:53:22;26.30;41.00
35680;DHT22;21803;53.586;10.040;2022-07-29T04:55:48;26.30;41.20
35680;DHT22;21803;53.586;10.040;2022-07-29T04:58:13;26.30;41.50
35680;DHT22;21803;53.586;10.040;2022-07-29T05:00:39;26.30;41.60
35680;DHT22;21803;53.586;10.040;2022-07-29T05:03:05;26.40;41.60
35680;DHT22;21803;53.586;10.040;2022-07-29T05:05:30;26.50;41.80
35680;DHT22;21803;53.586;10.040;2022-07-29T05:07:56;26.40;41.70
35680;DHT22;21803;53.586;10.040;2022-07-29T05:10:22;26.50;41.90
35680;DHT22;21803;53.586;10.040;2022-07-29T05:12:47;26.40;41.80
35680;DHT22;21803;53.586;10.040;2022-07-29T05:15:13;26.40;41.80
35680;DHT22;21803;53.586;10.040;2022-07-29T05:17:39;26.40;41.90
35680;DHT22;21803;53.586;10.040;2022-07-29T05:20:05;26.40;41.90
35680;DHT22;21803;53.586;10.040;2022-07-29T05:22:31;26.40;41.90
35680;DHT22;21803;53.586;10.040;2022-07-29T05:24:57;26.40;41.90
35680;DHT22;21803;53.586;10.040;2022-07-29T05:27:22;26.40;41.90
35680;DHT22;21803;53.586;10.040;2022-07-29T05:29:48;26.30;41.90
35680;DHT22;21803;53.586;10.040;2022-07-29T05:32:13;26.40;42.60
35680;DHT22;21803;53.586;10.040;2022-07-29T05:34:40;26.40;41.90
35680;DHT22;21803;53.586;10.040;2022-07-29T05:37:05;26.50;42.10
35680;DHT22;21803;53.586;10.040;2022-07-29T05:39:31;26.40;42.10
35680;DHT22;21803;53.586;10.040;2022-07-29T05:41:56;26.40;42.10
35680;DHT22;21803;53.586;10.040;2022-07-29T05:44:22;26.50;42.20
35680;DHT22;21803;53.586;10.040;2022-07-29T05:46:47;26.40;42.30
35680;DHT22;21803;53.586;10.040;2022-07-29T05:49:13;26.50;42.40
35680;DHT22;21803;53.586;10.040;2022-07-29T05:51:38;26.50;42.40
35680;DHT22;21803;53.586;10.040;2022-07-29T05:54:04;26.40;42.40
35680;DHT22;21803;53.586;10.040;2022-07-29T05:56:30;26.50;42.60
35680;DHT22;21803;53.586;10.040;2022-07-29T05:58:55;26.40;42.50
35680;DHT22;21803;53.586;10.040;2022-07-29T06:01:21;26.50;42.60
35680;DHT22;21803;53.586;10.040;2022-07-29T06:03:46;26.40;42.50
35680;DHT22;21803;53.586;10.040;2022-07-29T06:06:12;26.40;42.30
35680;DHT22;21803;53.586;10.040;2022-07-29T06:08:38;26.60;42.20
35680;DHT22;21803;53.586;10.040;2022-07-29T06:11:04;26.50;42.10
35680;DHT22;21803;53.586;10.040;2022-07-29T06:13:30;26.50;42.10
35680;DHT22;21803;53.586;10.040;2022-07-29T06:15:55;26.50;42.00
35680;DHT22;21803;53.586;10.040;2022-07-29T06:18:21;26.50;42.00
35680;DHT22;21803;53.586;10.040;2022-07-29T06:20:50;26.60;41.90
35680;DHT22;21803;53.586;10.040;2022-07-29T06:23:16;26.60;41.80
35680;DHT22;21803;53.586;10.040;2022-07-29T06:25:42;26.60;41.80
35680;DHT22;21803;53.586;10.040;2022-07-29T06:28:07;26.60;41.70
35680;DHT22;21803;53.586;10.040;2022-07-29T06:30:33;26.60;41.70
35680;DHT22;21803;53.586;10.040;2022-07-29T06:32:58;26.50;41.50
35680;DHT22;21803;53.586;10.040;2022-07-29T06:35:25;26.60;41.60
35680;DHT22;21803;53.586;10.040;2022-07-29T06:37:51;26.70;41.50
35680;DHT22;21803;53.586;10.040;2022-07-29T06:40:17;26.70;41.50
35680;DHT22;21803;53.586;10.040;2022-07-29T06:43:01;26.70;41.50
35680;DHT22;21803;53.586;10.040;2022-07-29T06:45:27;26.70;41.40
35680;DHT22;21803;53.586;10.040;2022-07-29T06:47:52;26.60;41.40
35680;DHT22;21803;53.586;10.040;2022-07-29T06:50:18;26.70;41.40
35680;DHT22;21803;53.586;10.040;2022-07-29T06:52:44;26.70;41.40
35680;DHT22;21803;53.586;10.040;2022-07-29T06:55:09;26.70;41.40
35680;DHT22;21803;53.586;10.040;2022-07-29T06:57:35;26.70;41.30
35680;DHT22;21803;53.586;10.040;2022-07-29T07:00:00;26.60;41.30
35680;DHT22;21803;53.586;10.040;2022-07-29T07:02:26;26.70;41.30
35680;DHT22;21803;53.586;10.040;2022-07-29T07:04:51;26.70;41.30
35680;DHT22;21803;53.586;10.040;2022-07-29T07:07:17;26.50;41.20
35680;DHT22;21803;53.586;10.040;2022-07-29T07:09:43;26.70;41.30
35680;DHT22;21803;53.586;10.040;2022-07-29T07:12:08;26.60;41.20
35680;DHT22;21803;53.586;10.040;2022-07-29T07:14:34;26.60;41.20
35680;DHT22;21803;53.586;10.040;2022-07-29T07:17:00;26.60;41.20
35680;DHT22;21803;53.586;10.040;2022-07-29T07:19:26;26.60;41.30
35680;DHT22;21803;53.586;10.040;2022-07-29T07:21:55;26.50;41.20
35680;DHT22;21803;53.586;10.040;2022-07-29T07:24:20;26.60;41.20
35680;DHT22;21803;53.586;10.040;2022-07-29T07:26:46;26.60;41.20
35680;DHT22;21803;53.586;10.040;2022-07-29T07:29:12;26.60;41.20
35680;DHT22;21803;53.586;10.040;2022-07-29T07:31:38;26.60;41.30
35680;DHT22;21803;53.586;10.040;2022-07-29T07:34:04;26.60;41.30
35680;DHT22;21803;53.586;10.040;2022-07-29T07:36:29;26.60;41.30
35680;DHT22;21803;53.586;10.040;2022-07-29T07:38:55;26.60;41.30
35680;DHT22;21803;53.586;10.040;2022-07-29T07:41:21;26.60;41.40
35680;DHT22;21803;53.586;10.040;2022-07-29T07:43:47;26.60;41.30
35680;DHT22;21803;53.586;10.040;2022-07-29T07:46:13;26.60;41.30
35680;DHT22;21803;53.586;10.040;2022-07-29T07:48:38;26.60;41.30
35680;DHT22;21803;53.586;10.040;2022-07-29T07:51:04;26.70;41.50
35680;DHT22;21803;53.586;10.040;2022-07-29T07:53:30;26.60;41.40
35680;DHT22;21803;53.586;10.040;2022-07-29T07:55:55;26.60;41.40
35680;DHT22;21803;53.586;10.040;2022-07-29T07:58:21;26.60;41.50
35680;DHT22;21803;53.586;10.040;2022-07-29T08:00:47;26.60;41.70
35680;DHT22;21803;53.586;10.040;2022-07-29T08:03:12;26.60;42.00
35680;DHT22;21803;53.586;10.040;2022-07-29T08:05:39;26.60;42.10
35680;DHT22;21803;53.586;10.040;2022-07-29T08:08:05;26.60;41.50
35680;DHT22;21803;53.586;10.040;2022-07-29T08:10:30;26.60;41.30
35680;DHT22;21803;53.586;10.040;2022-07-29T08:13:15;26.60;41.10
35680;DHT22;21803;53.586;10.040;2022-07-29T08:15:40;26.60;41.00
35680;DHT22;21803;53.586;10.040;2022-07-29T08:18:08;26.60;41.00
35680;DHT22;21803;53.586;10.040;2022-07-29T08:20:33;26.60;40.60
35680;DHT22;21803;53.586;10.040;2022-07-29T08:23:01;26.60;40.40
35680;DHT22;21803;53.586;10.040;2022-07-29T08:25:26;26.60;40.60
35680;DHT22;21803;53.586;10.040;2022-07-29T08:27:52;26.60;40.50
35680;DHT22;21803;53.586;10.040;2022-07-29T08:30:17;26.60;40.40
35680;DHT22;21803;53.586;10.040;2022-07-29T08:32:43;26.60;40.40
35680;DHT22;21803;53.586;10.040;2022-07-29T08:35:09;26.50;40.30
35680;DHT22;21803;53.586;10.040;2022-07-29T08:37:34;26.60;40.30
35680;DHT22;21803;53.586;10.040;2022-07-29T08:40:00;26.60;40.30
35680;DHT22;21803;53.586;10.040;2022-07-29T08:42:26;26.60;40.30
35680;DHT22;21803;53.586;10.040;2022-07-29T08:44:51;26.60;40.50
35680;DHT22;21803;53.586;10.040;2022-07-29T08:47:18;26.60;40.50
35680;DHT22;21803;53.586;10.040;2022-07-29T08:49:44;26.60;40.50
35680;DHT22;21803;53.586;10.040;2022-07-29T08:52:12;26.60;40.60
35680;DHT22;21803;53.586;10.040;2022-07-29T08:54:40;26.60;40.80
35680;DHT22;21803;53.586;10.040;2022-07-29T08:57:10;26.60;40.90
35680;DHT22;21803;53.586;10.040;2022-07-29T08:59:40;26.60;41.10
35680;DHT22;21803;53.586;10.040;2022-07-29T09:02:19;26.60;41.20
35680;DHT22;21803;53.586;10.040;2022-07-29T09:04:45;26.60;41.40
35680;DHT22;21803;53.586;10.040;2022-07-29T09:07:15;26.60;41.40
35680;DHT22;21803;53.586;10.040;2022-07-29T09:09:41;26.60;41.60
35680;DHT22;21803;53.586;10.040;2022-07-29T09:12:07;26.50;41.70
35680;DHT22;21803;53.586;10.040;2022-07-29T09:14:33;26.60;41.80
35680;DHT22;21803;53.586;10.040;2022-07-29T09:16:59;26.50;41.90
35680;DHT22;21803;53.586;10.040;2022-07-29T09:19:26;26.60;42.00
35680;DHT22;21803;53.586;10.040;2022-07-29T09:21:54;26.60;42.10
35680;DHT22;21803;53.586;10.040;2022-07-29T09:24:43;26.50;42.20
35680;DHT22;21803;53.586;10.040;2022-07-29T09:27:21;26.50;42.20
35680;DHT22;21803;53.586;10.040;2022-07-29T09:29:58;26.50;42.30
35680;DHT22;21803;53.586;10.040;2022-07-29T09:32:24;26.50;42.40
35680;DHT22;21803;53.586;10.040;2022-07-29T09:34:54;26.50;42.40
35680;DHT22;21803;53.586;10.040;2022-07-29T09:37:36;26.50;42.50
35680;DHT22;21803;53.586;10.040;2022-07-29T09:40:11;26.50;42.50
35680;DHT22;21803;53.586;10.040;2022-07-29T09:42:37;26.50;42.50
35680;DHT22;21803;53.586;10.040;2022-07-29T09:45:03;26.50;42.60
35680;DHT22;21803;53.586;10.040;2022-07-29T09:47:46;26.50;42.60
35680;DHT22;21803;53.586;10.040;2022-07-29T09:50:17;26.60;42.60
35680;DHT22;21803;53.586;10.040;2022-07-29T09:52:50;26.50;42.60
35680;DHT22;21803;53.586;10.040;2022-07-29T09:55:17;26.50;42.60
35680;DHT22;21803;53.586;10.040;2022-07-29T09:57:43;26.50;42.60
35680;DHT22;21803;53.586;10.040;2022-07-29T10:00:12;26.50;43.20
35680;DHT22;21803;53.586;10.040;2022-07-29T10:02:39;26.50;42.60
35680;DHT22;21803;53.586;10.040;2022-07-29T10:05:15;26.50;42.60
35680;DHT22;21803;53.586;10.040;2022-07-29T10:10:11;26.50;42.50
35680;DHT22;21803;53.586;10.040;2022-07-29T10:12:55;26.60;42.60
35680;DHT22;21803;53.586;10.040;2022-07-29T10:15:23;26.50;42.50
35680;DHT22;21803;53.586;10.040;2022-07-29T10:17:50;26.50;42.50
35680;DHT22;21803;53.586;10.040;2022-07-29T10:20:16;26.60;42.50
35680;DHT22;21803;53.586;10.040;2022-07-29T10:22:42;26.50;42.50
35680;DHT22;21803;53.586;10.040;2022-07-29T10:25:10;26.50;42.40
35680;DHT22;21803;53.586;10.040;2022-07-29T10:27:36;26.60;42.40
35680;DHT22;21803;53.586;10.040;2022-07-29T10:30:04;26.50;42.30
35680;DHT22;21803;53.586;10.040;2022-07-29T10:38:10;25.60;41.70
35680;DHT22;21803;53.586;10.040;2022-07-29T10:43:43;26.50;42.10
35680;DHT22;21803;53.586;10.040;2022-07-29T10:46:10;26.50;42.10
35680;DHT22;21803;53.586;10.040;2022-07-29T10:57:17;26.50;42.10
35680;DHT22;21803;53.586;10.040;2022-07-29T10:59:47;26.50;42.10
35680;DHT22;21803;53.586;10.040;2022-07-29T11:02:46;26.40;41.90
35680;DHT22;21803;53.586;10.040;2022-07-29T11:05:19;26.50;42.00
35680;DHT22;21803;53.586;10.040;2022-07-29T11:10:39;26.50;42.00
35680;DHT22;21803;53.586;10.040;2022-07-29T11:13:05;26.50;41.90
35680;DHT22;21803;53.586;10.040;2022-07-29T11:15:52;26.60;41.90
35680;DHT22;21803;53.586;10.040;2022-07-29T11:18:18;26.60;41.90
35680;DHT22;21803;53.586;10.040;2022-07-29T11:20:45;26.60;41.90
35680;DHT22;21803;53.586;10.040;2022-07-29T11:25:45;26.40;41.80
35680;DHT22;21803;53.586;10.040;2022-07-29T11:28:17;26.50;41.80
35680;DHT22;21803;53.586;10.040;2022-07-29T11:30:52;26.50;41.80
35680;DHT22;21803;53.586;10.040;2022-07-29T11:33:31;26.50;41.80
35680;DHT22;21803;53.586;10.040;2022-07-29T11:36:15;26.50;41.70
35680;DHT22;21803;53.586;10.040;2022-07-29T11:38:41;26.60;41.80
35680;DHT22;21803;53.586;10.040;2022-07-29T11:43:55;26.50;41.80
35680;DHT22;21803;53.586;10.040;2022-07-29T11:46:49;26.50;41.70
35680;DHT22;21803;53.586;10.040;2022-07-29T11:49:21;26.60;41.70
35680;DHT22;21803;53.586;10.040;2022-07-29T11:51:55;26.50;41.70
35680;DHT22;21803;53.586;10.040;2022-07-29T11:54:32;26.60;41.80
35680;DHT22;21803;53.586;10.040;2022-07-29T11:56:58;26.60;41.70
35680;DHT22;21803;53.586;10.040;2022-07-29T11:59:24;26.50;41.70
35680;DHT22;21803;53.586;10.040;2022-07-29T12:01:57;26.60;41.70
35680;DHT22;21803;53.586;10.040;2022-07-29T12:04:23;26.50;41.60
35680;DHT22;21803;53.586;10.040;2022-07-29T12:06:53;26.60;41.60
35680;DHT22;21803;53.586;10.040;2022-07-29T12:09:20;26.50;41.60
35680;DHT22;21803;53.586;10.040;2022-07-29T12:11:46;26.50;41.60
35680;DHT22;21803;53.586;10.040;2022-07-29T12:14:29;26.60;41.60
35680;DHT22;21803;53.586;10.040;2022-07-29T12:16:55;26.60;41.60
35680;DHT22;21803;53.586;10.040;2022-07-29T12:19:21;26.60;41.60
35680;DHT22;21803;53.586;10.040;2022-07-29T12:21:49;26.60;41.60
35680;DHT22;21803;53.586;10.040;2022-07-29T12:24:15;26.50;41.50
35680;DHT22;21803;53.586;10.040;2022-07-29T12:26:51;26.60;41.60
35680;DHT22;21803;53.586;10.040;2022-07-29T12:29:18;26.50;41.50
35680;DHT22;21803;53.586;10.040;2022-07-29T12:31:44;26.60;41.50
35680;DHT22;21803;53.586;10.040;2022-07-29T12:34:15;26.60;41.50
35680;DHT22;21803;53.586;10.040;2022-07-29T12:36:42;26.60;41.50
35680;DHT22;21803;53.586;10.040;2022-07-29T12:39:08;26.60;41.50
35680;DHT22;21803;53.586;10.040;2022-07-29T12:41:35;26.60;41.50
35680;DHT22;21803;53.586;10.040;2022-07-29T12:44:00;26.60;41.50
35680;DHT22;21803;53.586;10.040;2022-07-29T12:46:27;26.60;41.50
35680;DHT22;21803;53.586;10.040;2022-07-29T12:48:53;26.60;41.50
35680;DHT22;21803;53.586;10.040;2022-07-29T12:51:37;26.60;41.40
35680;DHT22;21803;53.586;10.040;2022-07-29T12:54:09;26.60;41.40
35680;DHT22;21803;53.586;10.040;2022-07-29T12:56:39;26.60;41.40
35680;DHT22;21803;53.586;10.040;2022-07-29T12:59:20;26.50;41.40
35680;DHT22;21803;53.586;10.040;2022-07-29T13:01:47;26.60;41.50
35680;DHT22;21803;53.586;10.040;2022-07-29T13:04:28;26.60;41.40
35680;DHT22;21803;53.586;10.040;2022-07-29T13:07:07;26.60;41.40
35680;DHT22;21803;53.586;10.040;2022-07-29T13:09:41;26.60;41.40
35680;DHT22;21803;53.586;10.040;2022-07-29T13:12:12;26.50;41.40
35680;DHT22;21803;53.586;10.040;2022-07-29T13:14:40;26.60;41.40
35680;DHT22;21803;53.586;10.040;2022-07-29T13:17:12;26.60;41.40
35680;DHT22;21803;53.586;10.040;2022-07-29T13:19:44;26.60;41.40
35680;DHT22;21803;53.586;10.040;2022-07-29T13:22:18;26.60;41.40
35680;DHT22;21803;53.586;10.040;2022-07-29T13:27:20;26.60;41.40
35680;DHT22;21803;53.586;10.040;2022-07-29T13:29:46;26.60;41.40
35680;DHT22;21803;53.586;10.040;2022-07-29T13:32:12;26.60;41.40
35680;DHT22;21803;53.586;10.040;2022-07-29T13:34:39;26.60;41.40
35680;DHT22;21803;53.586;10.040;2022-07-29T13:37:04;26.60;41.40
35680;DHT22;21803;53.586;10.040;2022-07-29T13:39:30;26.60;41.40
35680;DHT22;21803;53.586;10.040;2022-07-29T13:41:56;26.60;41.40
35680;DHT22;21803;53.586;10.040;2022-07-29T13:44:21;26.60;41.40
35680;DHT22;21803;53.586;10.040;2022-07-29T13:46:47;26.60;41.40
35680;DHT22;21803;53.586;10.040;2022-07-29T13:49:12;26.50;41.30
35680;DHT22;21803;53.586;10.040;2022-07-29T13:51:38;26.60;41.40
35680;DHT22;21803;53.586;10.040;2022-07-29T13:54:04;26.60;41.40
35680;DHT22;21803;53.586;10.040;2022-07-29T13:56:30;26.60;41.40
35680;DHT22;21803;53.586;10.040;2022-07-29T13:58:55;26.60;41.40
35680;DHT22;21803;53.586;10.040;2022-07-29T14:01:21;26.60;41.50
35680;DHT22;21803;53.586;10.040;2022-07-29T14:03:46;26.50;42.00
35680;DHT22;21803;53.586;10.040;2022-07-29T14:06:12;26.60;41.50
35680;DHT22;21803;53.586;10.040;2022-07-29T14:08:38;26.60;41.50
35680;DHT22;21803;53.586;10.040;2022-07-29T14:11:04;26.50;41.50
35680;DHT22;21803;53.586;10.040;2022-07-29T14:13:29;26.50;41.50
35680;DHT22;21803;53.586;10.040;2022-07-29T14:15:55;26.60;41.60
35680;DHT22;21803;53.586;10.040;2022-07-29T14:18:21;26.60;41.60
35680;DHT22;21803;53.586;10.040;2022-07-29T14:20:46;26.50;41.50
35680;DHT22;21803;53.586;10.040;2022-07-29T14:23:12;26.50;41.60
35680;DHT22;21803;53.586;10.040;2022-07-29T14:25:37;26.60;41.60
35680;DHT22;21803;53.586;10.040;2022-07-29T14:28:03;26.50;41.60
35680;DHT22;21803;53.586;10.040;2022-07-29T14:30:28;26.50;41.60
35680;DHT22;21803;53.586;10.040;2022-07-29T14:32:54;26.50;41.60
35680;DHT22;21803;53.586;10.040;2022-07-29T14:35:19;26.50;41.60
35680;DHT22;21803;53.586;10.040;2022-07-29T14:37:45;26.60;41.60
35680;DHT22;21803;53.586;10.040;2022-07-29T14:40:11;26.50;41.70
35680;DHT22;21803;53.586;10.040;2022-07-29T14:42:37;26.60;41.70
35680;DHT22;21803;53.586;10.040;2022-07-29T14:45:04;26.50;41.60
35680;DHT22;21803;53.586;10.040;2022-07-29T14:47:30;26.50;41.60
35680;DHT22;21803;53.586;10.040;2022-07-29T14:49:56;26.60;41.70
35680;DHT22;21803;53.586;10.040;2022-07-29T14:52:21;26.50;41.70
35680;DHT22;21803;53.586;10.040;2022-07-29T14:54:47;26.50;41.70
35680;DHT22;21803;53.586;10.040;2022-07-29T14:57:12;26.50;41.70
35680;DHT22;21803;53.586;10.040;2022-07-29T14:59:38;26.60;41.80
35680;DHT22;21803;53.586;10.040;2022-07-29T15:02:04;26.50;41.70
35680;DHT22;21803;53.586;10.040;2022-07-29T15:04:29;26.50;41.70
35680;DHT22;21803;53.586;10.040;2022-07-29T15:06:55;26.50;41.70
35680;DHT22;21803;53.586;10.040;2022-07-29T15:09:20;26.50;41.70
35680;DHT22;21803;53.586;10.040;2022-07-29T15:11:46;26.50;41.70
35680;DHT22;21803;53.586;10.040;2022-07-29T15:14:12;26.60;41.70
35680;DHT22;21803;53.586;10.040;2022-07-29T15:16:38;26.60;41.80
35680;DHT22;21803;53.586;10.040;2022-07-29T15:19:05;26.60;41.70
35680;DHT22;21803;53.586;10.040;2022-07-29T15:21:31;26.60;41.80
35680;DHT22;21803;53.586;10.040;2022-07-29T15:23:56;26.60;41.70
35680;DHT22;21803;53.586;10.040;2022-07-29T15:26:22;26.60;41.80
35680;DHT22;21803;53.586;10.040;2022-07-29T15:28:48;26.60;41.70
35680;DHT22;21803;53.586;10.040;2022-07-29T15:31:13;26.70;41.90
35680;DHT22;21803;53.586;10.040;2022-07-29T15:33:39;26.60;41.80
35680;DHT22;21803;53.586;10.040;2022-07-29T15:36:05;26.70;41.90
35680;DHT22;21803;53.586;10.040;2022-07-29T15:38:30;26.60;41.90
35680;DHT22;21803;53.586;10.040;2022-07-29T15:40:56;26.60;41.80
35680;DHT22;21803;53.586;10.040;2022-07-29T15:43:22;26.60;41.90
35680;DHT22;21803;53.586;10.040;2022-07-29T15:45:48;26.60;41.90
35680;DHT22;21803;53.586;10.040;2022-07-29T15:48:32;26.60;41.80
35680;DHT22;21803;53.586;10.040;2022-07-29T15:50:59;26.60;41.90
35680;DHT22;21803;53.586;10.040;2022-07-29T15:53:24;26.60;41.90
35680;DHT22;21803;53.586;10.040;2022-07-29T15:55:50;26.60;41.90
35680;DHT22;21803;53.586;10.040;2022-07-29T15:58:16;26.60;41.90
35680;DHT22;21803;53.586;10.040;2022-07-29T16:00:42;26.60;41.90
35680;DHT22;21803;53.586;10.040;2022-07-29T16:03:07;26.60;41.90
35680;DHT22;21803;53.586;10.040;2022-07-29T16:05:33;26.50;41.90